createdAt,value
2018-06-05T00:02:23.315Z,6.80
2018-06-05T00:04:54.975Z,9.53
2018-06-05T00:07:26.483Z,7.03
2018-06-05T00:09:59.401Z,8.20
2018-06-05T00:12:30.982Z,7.13
2018-06-05T00:15:02.622Z,6.37
2018-06-05T00:17:34.173Z,8.50
2018-06-05T00:20:05.866Z,6.63
2018-06-05T00:22:37.748Z,7.87
2018-06-05T00:25:09.354Z,7.87
2018-06-05T00:27:41.004Z,7.90
2018-06-05T00:30:12.756Z,10.13
2018-06-05T00:32:44.554Z,7.17
2018-06-05T00:35:16.335Z,7.40
2018-06-05T00:37:47.965Z,7.80
2018-06-05T00:40:19.596Z,6.00
2018-06-05T00:42:51.269Z,6.70
2018-06-05T00:45:22.822Z,5.60
2018-06-05T00:47:54.594Z,6.43
2018-06-05T00:50:26.376Z,6.97
2018-06-05T00:52:57.978Z,7.33
2018-06-05T00:55:29.637Z,6.13
2018-06-05T00:58:01.189Z,7.40
2018-06-05T01:00:32.850Z,7.03
2018-06-05T01:03:05.449Z,7.73
2018-06-05T01:05:37.240Z,7.97
2018-06-05T01:08:08.873Z,7.80
2018-06-05T01:10:40.600Z,8.80
2018-06-05T01:13:12.194Z,6.50
2018-06-05T01:15:43.969Z,6.30
2018-06-05T01:18:15.609Z,8.53
2018-06-05T01:20:47.328Z,9.47
2018-06-05T01:23:18.495Z,7.07
2018-06-05T01:25:50.756Z,8.07
2018-06-05T01:28:22.454Z,8.90
2018-06-05T01:30:54.081Z,8.23
2018-06-05T01:33:25.772Z,8.10
2018-06-05T01:35:57.401Z,8.87
2018-06-05T01:38:28.981Z,9.30
2018-06-05T01:41:00.612Z,10.87
2018-06-05T01:43:32.353Z,9.27
2018-06-05T01:46:03.921Z,8.20
2018-06-05T01:48:35.642Z,8.37
2018-06-05T01:51:07.214Z,7.47
2018-06-05T01:53:38.833Z,8.00
2018-06-05T01:56:10.344Z,9.17
2018-06-05T01:58:42.088Z,8.70
2018-06-05T02:01:13.670Z,6.97
2018-06-05T02:03:45.375Z,6.83
2018-06-05T02:06:16.957Z,8.33
2018-06-05T02:08:48.653Z,7.93
2018-06-05T02:11:20.352Z,7.10
2018-06-05T02:13:51.965Z,8.63
2018-06-05T02:16:23.569Z,9.47
2018-06-05T02:18:55.322Z,10.63
2018-06-05T02:21:26.889Z,8.80
2018-06-05T02:23:58.507Z,11.30
2018-06-05T02:26:30.085Z,8.37
2018-06-05T02:29:01.607Z,9.70
2018-06-05T02:31:33.213Z,11.03
2018-06-05T02:34:05.054Z,11.73
2018-06-05T02:36:37.034Z,8.97
2018-06-05T02:39:09.365Z,8.60
2018-06-05T02:41:40.941Z,7.30
2018-06-05T02:44:12.574Z,9.33
2018-06-05T02:46:44.320Z,7.70
2018-06-05T02:49:15.981Z,10.67
2018-06-05T02:51:47.685Z,8.30
2018-06-05T02:54:19.346Z,9.67
2018-06-05T02:56:51.099Z,9.10
2018-06-05T02:59:22.842Z,8.77
2018-06-05T03:01:54.554Z,8.00
2018-06-05T03:04:26.149Z,7.42
2018-06-05T03:06:57.825Z,8.00
2018-06-05T03:09:29.416Z,8.47
2018-06-05T03:12:01.136Z,8.77
2018-06-05T03:14:32.828Z,7.23
2018-06-05T03:17:04.554Z,11.23
2018-06-05T03:19:36.258Z,13.67
2018-06-05T03:22:07.963Z,10.63
2018-06-05T03:24:39.579Z,11.13
2018-06-05T03:27:11.181Z,9.00
2018-06-05T03:29:42.792Z,9.50
2018-06-05T03:32:14.583Z,10.57
2018-06-05T03:34:46.136Z,7.23
2018-06-05T03:37:17.997Z,10.27
2018-06-05T03:39:49.857Z,10.20
2018-06-05T03:42:21.448Z,7.80
2018-06-05T03:44:53.130Z,8.43
2018-06-05T03:47:24.752Z,8.87
2018-06-05T03:49:56.497Z,9.23
2018-06-05T03:52:28.077Z,6.97
2018-06-05T03:54:59.766Z,8.70
2018-06-05T03:57:31.354Z,9.27
2018-06-05T04:00:03.136Z,8.23
2018-06-05T04:02:34.974Z,11.47
2018-06-05T04:05:06.745Z,9.03
2018-06-05T04:07:38.290Z,8.43
2018-06-05T04:10:09.943Z,7.03
2018-06-05T04:12:41.610Z,8.47
2018-06-05T04:15:13.184Z,7.47
2018-06-05T04:17:44.923Z,8.17
2018-06-05T04:20:16.500Z,6.93
2018-06-05T04:22:48.232Z,7.73
2018-06-05T04:25:19.820Z,5.43
2018-06-05T04:27:51.601Z,7.20
2018-06-05T04:30:23.396Z,7.43
2018-06-05T04:32:55.061Z,6.47
2018-06-05T04:35:26.773Z,6.33
2018-06-05T04:37:58.410Z,6.23
2018-06-05T04:40:30.227Z,6.83
2018-06-05T04:43:01.788Z,6.93
2018-06-05T04:45:33.445Z,8.97
2018-06-05T04:48:05.157Z,8.40
2018-06-05T04:50:36.839Z,9.23
2018-06-05T04:53:08.659Z,7.33
2018-06-05T04:55:40.286Z,6.63
2018-06-05T04:58:11.938Z,6.37
2018-06-05T05:00:43.593Z,6.93
2018-06-05T05:03:15.254Z,7.07
2018-06-05T05:05:46.359Z,7.10
2018-06-05T05:08:17.949Z,6.00
2018-06-05T05:10:49.497Z,4.97
2018-06-05T05:13:21.160Z,4.40
2018-06-05T05:15:52.708Z,4.43
2018-06-05T05:18:24.357Z,5.50
2018-06-05T05:20:55.973Z,6.47
2018-06-05T05:23:27.679Z,5.10
2018-06-05T05:25:59.140Z,5.13
2018-06-05T05:28:30.841Z,5.53
2018-06-05T05:31:02.476Z,3.83
2018-06-05T05:33:34.224Z,4.93
2018-06-05T05:36:06.155Z,5.33
2018-06-05T05:38:37.749Z,5.40
2018-06-05T05:41:09.352Z,11.03
2018-06-05T05:43:41.040Z,9.00
2018-06-05T05:46:12.630Z,5.27
2018-06-05T05:48:44.340Z,4.37
2018-06-05T05:51:15.892Z,4.47
2018-06-05T05:53:47.479Z,5.30
2018-06-05T05:56:19.315Z,5.70
2018-06-05T05:58:51.027Z,5.67
2018-06-05T06:01:22.651Z,13.37
2018-06-05T06:03:54.289Z,10.43
2018-06-05T06:06:25.838Z,6.40
2018-06-05T06:08:57.550Z,5.70
2018-06-05T06:11:29.185Z,8.80
2018-06-05T06:14:00.928Z,14.77
2018-06-05T06:16:32.569Z,13.87
2018-06-05T06:19:04.240Z,12.63
2018-06-05T06:21:35.880Z,9.27
2018-06-05T06:24:07.536Z,10.87
2018-06-05T06:26:39.083Z,8.63
2018-06-05T06:29:10.760Z,12.50
2018-06-05T06:31:42.455Z,16.87
2018-06-05T06:34:14.091Z,17.50
2018-06-05T06:36:45.729Z,17.03
2018-06-05T06:39:17.485Z,13.90
2018-06-05T06:41:49.022Z,8.10
2018-06-05T06:44:20.601Z,9.07
2018-06-05T06:46:52.246Z,5.30
2018-06-05T06:49:23.941Z,5.93
2018-06-05T06:51:55.513Z,12.47
2018-06-05T06:54:27.269Z,8.37
2018-06-05T06:56:58.822Z,5.13
2018-06-05T06:59:30.426Z,6.80
2018-06-05T07:02:02.070Z,9.83
2018-06-05T07:04:33.750Z,11.77
2018-06-05T07:07:05.495Z,15.43
2018-06-05T07:09:37.239Z,11.67
2018-06-05T07:12:08.836Z,16.60
2018-06-05T07:14:40.457Z,11.40
2018-06-05T07:17:12.123Z,6.93
2018-06-05T07:19:43.670Z,12.50
2018-06-05T07:22:15.249Z,11.43
2018-06-05T07:24:47.023Z,8.90
2018-06-05T07:27:18.664Z,5.97
2018-06-05T07:29:50.494Z,5.37
2018-06-05T07:32:22.084Z,5.33
2018-06-05T07:34:53.820Z,7.00
2018-06-05T07:37:25.502Z,6.00
2018-06-05T07:39:57.123Z,9.30
2018-06-05T07:42:28.827Z,7.83
2018-06-05T07:45:00.551Z,14.53
2018-06-05T07:47:31.669Z,9.07
2018-06-05T07:50:03.380Z,8.00
2018-06-05T07:52:35.001Z,7.77
2018-06-05T07:55:06.659Z,6.80
2018-06-05T07:57:38.366Z,7.10
2018-06-05T08:00:10.081Z,9.63
2018-06-05T08:02:41.725Z,6.53
2018-06-05T08:05:12.844Z,9.67
2018-06-05T08:07:44.433Z,9.30
2018-06-05T08:10:16.120Z,10.07
2018-06-05T08:12:47.845Z,9.10
2018-06-05T08:15:19.417Z,8.93
2018-06-05T08:17:51.056Z,8.70
2018-06-05T08:20:22.709Z,7.97
2018-06-05T08:22:56.656Z,10.23
2018-06-05T08:25:28.385Z,6.77
2018-06-05T08:28:00.029Z,8.20
2018-06-05T08:30:31.782Z,10.00
2018-06-05T08:33:03.456Z,8.57
2018-06-05T08:35:35.113Z,9.17
2018-06-05T08:38:06.768Z,7.87
2018-06-05T08:40:38.593Z,7.57
2018-06-05T08:43:10.484Z,6.87
2018-06-05T08:45:42.129Z,6.43
2018-06-05T08:48:13.713Z,7.00
2018-06-05T08:50:45.449Z,5.80
2018-06-05T08:53:17.042Z,5.03
2018-06-05T08:55:48.746Z,6.53
2018-06-05T08:58:20.429Z,6.03
2018-06-05T09:00:51.975Z,5.27
2018-06-05T09:03:23.549Z,8.83
2018-06-05T09:05:55.185Z,7.00
2018-06-05T09:08:26.846Z,8.60
2018-06-05T09:10:58.480Z,7.63
2018-06-05T09:13:30.248Z,6.10
2018-06-05T09:16:02.109Z,8.93
2018-06-05T09:18:33.658Z,7.23
2018-06-05T09:21:05.389Z,6.43
2018-06-05T09:23:37.017Z,7.20
2018-06-05T09:26:08.677Z,8.03
2018-06-05T09:28:40.299Z,8.27
2018-06-05T09:31:11.990Z,5.87
2018-06-05T09:33:43.645Z,6.27
2018-06-05T09:36:15.277Z,6.70
2018-06-05T09:38:46.933Z,7.77
2018-06-05T09:41:18.790Z,8.17
2018-06-05T09:43:50.508Z,7.43
2018-06-05T09:46:22.309Z,8.87
2018-06-05T09:48:53.950Z,8.77
2018-06-05T09:51:25.669Z,9.13
2018-06-05T09:53:57.299Z,9.77
2018-06-05T09:56:28.956Z,7.37
2018-06-05T09:59:00.611Z,5.80
2018-06-05T10:01:32.286Z,5.07
2018-06-05T10:04:03.897Z,7.30
2018-06-05T10:06:35.609Z,8.00
2018-06-05T10:09:08.921Z,8.00
2018-06-05T10:11:40.627Z,6.03
2018-06-05T10:14:12.267Z,7.37
2018-06-05T10:16:44.147Z,7.30
2018-06-05T10:19:15.788Z,7.03
2018-06-05T10:21:47.445Z,6.03
2018-06-05T10:24:19.021Z,7.20
2018-06-05T10:26:50.853Z,7.30
2018-06-05T10:29:22.509Z,6.53
2018-06-05T10:31:54.219Z,4.30
2018-06-05T10:34:25.778Z,8.00
2018-06-05T10:36:57.576Z,4.70
2018-06-05T10:39:29.137Z,6.20
2018-06-05T10:42:00.857Z,7.30
2018-06-05T10:44:32.481Z,6.70
2018-06-05T10:47:04.258Z,5.37
2018-06-05T10:49:35.892Z,5.40
2018-06-05T10:52:07.828Z,5.37
2018-06-05T10:54:39.488Z,4.80
2018-06-05T10:57:11.298Z,7.30
2018-06-05T10:59:43.006Z,5.63
2018-06-05T11:02:14.548Z,5.60
2018-06-05T11:04:46.373Z,5.17
2018-06-05T11:07:17.969Z,5.93
2018-06-05T11:09:49.630Z,4.73
2018-06-05T11:12:21.280Z,4.63
2018-06-05T11:14:52.875Z,5.33
2018-06-05T11:17:24.597Z,4.47
2018-06-05T11:19:56.181Z,4.57
2018-06-05T11:22:27.912Z,4.00
2018-06-05T11:24:59.505Z,4.60
2018-06-05T11:27:31.281Z,6.50
2018-06-05T11:30:02.983Z,4.30
2018-06-05T11:32:34.732Z,5.40
2018-06-05T11:35:06.502Z,5.03
2018-06-05T11:37:38.170Z,4.17
2018-06-05T11:40:09.805Z,4.17
2018-06-05T11:42:40.934Z,5.83
2018-06-05T11:45:12.543Z,4.33
2018-06-05T11:47:44.324Z,4.73
2018-06-05T11:50:15.972Z,6.13
2018-06-05T11:52:47.779Z,3.70
2018-06-05T11:55:19.372Z,3.70
2018-06-05T11:57:51.019Z,4.37
2018-06-05T12:00:22.984Z,6.13
2018-06-05T12:02:54.783Z,6.00
2018-06-05T12:05:26.408Z,6.03
2018-06-05T12:07:58.144Z,6.07
2018-06-05T12:10:29.816Z,5.00
2018-06-05T12:13:01.451Z,6.00
2018-06-05T12:15:33.114Z,3.47
2018-06-05T12:18:04.752Z,4.23
2018-06-05T12:20:36.344Z,3.67
2018-06-05T12:23:08.082Z,5.97
2018-06-05T12:25:39.697Z,4.93
2018-06-05T12:28:11.461Z,4.33
2018-06-05T12:30:43.190Z,7.90
2018-06-05T12:33:15.023Z,5.53
2018-06-05T12:35:46.589Z,5.83
2018-06-05T12:38:18.338Z,6.10
2018-06-05T12:40:49.986Z,7.37
2018-06-05T12:43:22.471Z,4.67
2018-06-05T12:45:54.220Z,6.47
2018-06-05T12:48:25.964Z,4.37
2018-06-05T12:50:57.533Z,6.50
2018-06-05T12:53:29.193Z,6.13
2018-06-05T12:56:00.769Z,5.00
2018-06-05T12:58:32.320Z,4.63
2018-06-05T13:01:04.050Z,5.17
2018-06-05T13:03:35.644Z,6.37
2018-06-05T13:06:07.464Z,5.47
2018-06-05T13:08:38.628Z,6.80
2018-06-05T13:11:10.170Z,6.73
2018-06-05T13:13:41.824Z,4.37
2018-06-05T13:16:13.483Z,4.33
2018-06-05T13:18:45.039Z,6.50
2018-06-05T13:21:16.795Z,6.83
2018-06-05T13:23:48.366Z,5.90
2018-06-05T13:26:20.175Z,5.83
2018-06-05T13:28:51.808Z,5.40
2018-06-05T13:31:23.479Z,6.00
2018-06-05T13:33:55.106Z,4.77
2018-06-05T13:36:26.725Z,4.40
2018-06-05T13:38:58.553Z,5.50
2018-06-05T13:41:30.132Z,5.70
2018-06-05T13:44:01.765Z,5.93
2018-06-05T13:46:33.468Z,7.10
2018-06-05T13:49:05.205Z,4.80
2018-06-05T13:51:36.763Z,5.10
2018-06-05T13:54:08.426Z,5.50
2018-06-05T13:56:40.174Z,4.93
2018-06-05T13:59:11.843Z,5.63
2018-06-05T14:01:43.393Z,5.67
2018-06-05T14:04:14.503Z,6.33
2018-06-05T14:06:46.086Z,4.47
2018-06-05T14:09:18.213Z,5.67
2018-06-05T14:11:49.844Z,4.17
2018-06-05T14:14:21.598Z,3.20
2018-06-05T14:16:53.341Z,5.87
2018-06-05T14:19:25.026Z,6.43
2018-06-05T14:21:56.703Z,5.30
2018-06-05T14:24:28.337Z,3.63
2018-06-05T14:26:59.921Z,5.43
2018-06-05T14:29:31.620Z,4.70
2018-06-05T14:32:03.125Z,3.87
2018-06-05T14:34:34.757Z,4.23
2018-06-05T14:37:06.489Z,4.23
2018-06-05T14:39:37.642Z,4.00
2018-06-05T14:42:09.229Z,4.43
2018-06-05T14:44:40.994Z,5.23
2018-06-05T14:47:12.654Z,5.17
2018-06-05T14:49:44.345Z,6.60
2018-06-05T14:52:15.964Z,3.90
2018-06-05T14:54:47.761Z,4.63
2018-06-05T14:57:19.389Z,5.00
2018-06-05T14:59:50.977Z,6.00
2018-06-05T15:02:22.527Z,5.50
2018-06-05T15:04:54.085Z,5.00
2018-06-05T15:07:25.598Z,3.80
2018-06-05T15:09:57.222Z,3.60
2018-06-05T15:12:28.944Z,7.20
2018-06-05T15:15:00.533Z,6.27
2018-06-05T15:17:32.229Z,6.67
2018-06-05T15:20:03.833Z,6.30
2018-06-05T15:22:35.491Z,6.23
2018-06-05T15:25:07.071Z,5.23
2018-06-05T15:27:38.782Z,3.50
2018-06-05T15:30:09.864Z,5.80
2018-06-05T15:32:41.380Z,4.60
2018-06-05T15:35:12.547Z,4.33
2018-06-05T15:37:44.149Z,8.03
2018-06-05T15:40:15.765Z,7.43
2018-06-05T15:42:47.489Z,5.90
2018-06-05T15:45:19.193Z,7.30
2018-06-05T15:47:50.771Z,8.97
2018-06-05T15:50:22.509Z,6.07
2018-06-05T15:52:54.233Z,7.20
2018-06-05T15:55:25.813Z,5.27
2018-06-05T15:57:57.491Z,4.00
2018-06-05T16:00:29.129Z,5.83
2018-06-05T16:03:00.879Z,4.23
2018-06-05T16:05:32.478Z,8.73
2018-06-05T16:08:04.125Z,9.63
2018-06-05T16:10:35.748Z,7.83
2018-06-05T16:13:07.443Z,10.13
2018-06-05T16:15:39.230Z,11.20
2018-06-05T16:18:10.215Z,10.83
2018-06-05T16:20:41.833Z,9.30
2018-06-05T16:23:13.346Z,8.93
2018-06-05T16:25:44.949Z,10.93
2018-06-05T16:28:16.458Z,8.97
2018-06-05T16:30:48.165Z,10.93
2018-06-05T16:33:19.718Z,10.40
2018-06-05T16:35:51.367Z,8.23
2018-06-05T16:38:22.905Z,11.50
2018-06-05T16:40:54.478Z,12.70
2018-06-05T16:43:25.894Z,12.50
2018-06-05T16:45:57.481Z,10.77
2018-06-05T16:48:29.101Z,13.00
2018-06-05T16:51:00.707Z,11.30
2018-06-05T16:53:32.412Z,10.90
2018-06-05T16:56:04.196Z,12.97
2018-06-05T16:58:35.858Z,11.57
2018-06-05T17:01:07.445Z,11.60
2018-06-05T17:03:39.033Z,11.50
2018-06-05T17:06:10.745Z,12.60
2018-06-05T17:08:42.401Z,12.87
2018-06-05T17:11:14.153Z,13.20
2018-06-05T17:13:45.789Z,11.67
2018-06-05T17:16:17.529Z,11.57
2018-06-05T17:18:49.099Z,11.27
2018-06-05T17:21:20.673Z,14.53
2018-06-05T17:23:52.281Z,9.03
2018-06-05T17:26:24.074Z,12.90
2018-06-05T17:28:55.812Z,17.00
2018-06-05T17:31:27.400Z,12.10
2018-06-05T17:33:58.288Z,10.57
2018-06-05T17:36:29.824Z,11.23
2018-06-05T17:39:01.615Z,14.00
2018-06-05T17:41:33.228Z,11.50
2018-06-05T17:44:05.333Z,17.67
2018-06-05T17:46:37.181Z,12.17
2018-06-05T17:49:08.858Z,16.50
2018-06-05T17:51:40.594Z,21.87
2018-06-05T17:54:12.268Z,16.97
2018-06-05T17:56:43.869Z,18.93
2018-06-05T17:59:15.402Z,18.70
2018-06-05T18:01:47.185Z,18.23
2018-06-05T18:04:18.692Z,20.57
2018-06-05T18:06:50.493Z,18.20
2018-06-05T18:09:21.997Z,22.53
2018-06-05T18:11:53.726Z,18.33
2018-06-05T18:14:25.433Z,13.87
2018-06-05T18:16:57.105Z,16.83
2018-06-05T18:19:28.651Z,18.37
2018-06-05T18:22:00.243Z,15.87
2018-06-05T18:24:31.857Z,18.93
2018-06-05T18:27:03.533Z,22.57
2018-06-05T18:29:34.608Z,17.87
2018-06-05T18:32:06.337Z,15.43
2018-06-05T18:34:37.865Z,15.83
2018-06-05T18:37:09.532Z,17.90
2018-06-05T18:39:41.292Z,17.67
2018-06-05T18:42:12.902Z,12.37
2018-06-05T18:44:44.604Z,14.90
2018-06-05T18:47:16.274Z,13.90
2018-06-05T18:49:47.776Z,13.63
2018-06-05T18:52:19.539Z,10.40
2018-06-05T18:54:51.127Z,10.10
2018-06-05T18:57:23.009Z,12.20
2018-06-05T18:59:54.627Z,9.30
2018-06-05T19:02:26.377Z,9.03
2018-06-05T19:04:58.029Z,9.60
2018-06-05T19:07:29.629Z,10.90
2018-06-05T19:10:01.272Z,13.13
2018-06-05T19:12:32.868Z,9.00
2018-06-05T19:15:04.357Z,9.90
2018-06-05T19:17:35.979Z,9.13
2018-06-05T19:20:07.666Z,11.57
2018-06-05T19:22:39.304Z,8.67
2018-06-05T19:25:11.005Z,7.10
2018-06-05T19:27:42.599Z,8.43
2018-06-05T19:30:14.391Z,6.80
2018-06-05T19:32:45.984Z,6.53
2018-06-05T19:35:17.600Z,4.87
2018-06-05T19:37:49.285Z,6.10
2018-06-05T19:40:21.014Z,6.87
2018-06-05T19:42:52.705Z,6.23
2018-06-05T19:45:24.429Z,5.50
2018-06-05T19:47:56.137Z,6.90
2018-06-05T19:50:27.669Z,7.73
2018-06-05T19:52:59.446Z,9.37
2018-06-05T19:55:30.978Z,8.13
2018-06-05T19:58:02.452Z,8.70
2018-06-05T20:00:34.061Z,8.10
2018-06-05T20:03:05.915Z,7.13
2018-06-05T20:05:37.670Z,7.53
2018-06-05T20:08:09.184Z,8.00
2018-06-05T20:10:40.927Z,6.60
2018-06-05T20:13:12.520Z,6.67
2018-06-05T20:15:44.317Z,5.43
2018-06-05T20:18:15.820Z,4.70
2018-06-05T20:20:47.533Z,5.37
2018-06-05T20:23:19.145Z,7.17
2018-06-05T20:25:50.830Z,7.40
2018-06-05T20:28:22.417Z,9.63
2018-06-05T20:30:54.040Z,7.43
2018-06-05T20:33:25.664Z,9.67
2018-06-05T20:35:57.404Z,8.73
2018-06-05T20:38:28.969Z,7.10
2018-06-05T20:41:00.573Z,7.07
2018-06-05T20:43:32.355Z,7.70
2018-06-05T20:46:04.322Z,8.57
2018-06-05T20:48:36.020Z,6.83
2018-06-05T20:51:07.704Z,6.97
2018-06-05T20:53:39.334Z,9.70
2018-06-05T20:56:11.046Z,7.40
2018-06-05T20:58:42.650Z,8.67
2018-06-05T21:01:14.224Z,7.47
2018-06-05T21:03:45.932Z,7.43
2018-06-05T21:06:17.626Z,6.33
2018-06-05T21:08:49.345Z,7.83
2018-06-05T21:11:20.987Z,7.83
2018-06-05T21:13:52.130Z,9.70
2018-06-05T21:16:23.653Z,7.90
2018-06-05T21:18:55.273Z,8.23
2018-06-05T21:21:27.018Z,8.13
2018-06-05T21:23:58.594Z,9.63
2018-06-05T21:26:30.168Z,11.80
2018-06-05T21:29:01.832Z,8.97
2018-06-05T21:31:33.495Z,10.07
2018-06-05T21:34:05.279Z,9.03
2018-06-05T21:36:36.904Z,9.03
2018-06-05T21:39:10.588Z,9.00
2018-06-05T21:41:42.189Z,13.03
2018-06-05T21:44:13.905Z,12.23
2018-06-05T21:46:45.657Z,11.07
2018-06-05T21:49:17.316Z,9.40
2018-06-05T21:51:48.925Z,10.03
2018-06-05T21:54:20.653Z,10.87
2018-06-05T21:56:52.237Z,11.00
2018-06-05T21:59:23.891Z,8.63
2018-06-05T22:01:55.529Z,11.50
2018-06-05T22:04:27.105Z,10.33
2018-06-05T22:06:58.737Z,15.20
2018-06-05T22:09:30.358Z,16.67
2018-06-05T22:12:01.942Z,11.07
2018-06-05T22:14:33.565Z,12.80
2018-06-05T22:17:05.153Z,12.07
2018-06-05T22:19:36.855Z,11.53
2018-06-05T22:22:08.564Z,14.53
2018-06-05T22:24:40.189Z,15.77
2018-06-05T22:27:12.011Z,12.53
2018-06-05T22:29:43.678Z,14.67
2018-06-05T22:32:15.183Z,13.83
2018-06-05T22:34:46.889Z,11.50
2018-06-05T22:37:18.553Z,13.33
2018-06-05T22:39:50.121Z,14.67
2018-06-05T22:42:21.820Z,12.63
2018-06-05T22:44:53.523Z,14.53
2018-06-05T22:47:25.272Z,17.53
2018-06-05T22:49:57.160Z,15.20
2018-06-05T22:52:28.988Z,15.83
2018-06-05T22:55:00.673Z,16.83
2018-06-05T22:57:32.401Z,16.93
2018-06-05T23:00:03.498Z,14.97
2018-06-05T23:02:35.050Z,18.00
2018-06-05T23:05:06.876Z,16.53
2018-06-05T23:07:38.581Z,17.97
2018-06-05T23:10:10.289Z,19.07
2018-06-05T23:12:41.954Z,19.57
2018-06-05T23:15:13.625Z,18.77
2018-06-05T23:17:45.257Z,20.27
2018-06-05T23:20:16.965Z,18.27
2018-06-05T23:22:48.674Z,20.17
2018-06-05T23:25:20.437Z,20.93
2018-06-05T23:27:52.083Z,20.57
2018-06-05T23:30:23.753Z,20.00
2018-06-05T23:32:55.423Z,22.20
2018-06-05T23:35:27.469Z,18.60
2018-06-05T23:37:59.016Z,20.73
2018-06-05T23:40:30.770Z,26.70
2018-06-05T23:43:02.376Z,20.63
2018-06-05T23:45:34.194Z,22.03
2018-06-05T23:48:05.740Z,25.80
2018-06-05T23:50:37.438Z,24.67
2018-06-05T23:53:09.169Z,22.53
2018-06-05T23:55:40.850Z,25.07
2018-06-05T23:58:12.637Z,24.13
